createdAt,value
2022-12-15T00:01:20.171Z,99171.91
2022-12-15T00:03:10.816Z,99172.75
2022-12-15T00:05:01.341Z,99160.00
2022-12-15T00:06:52.012Z,99148.94
2022-12-15T00:08:42.446Z,99144.69
2022-12-15T00:10:33.065Z,99140.47
2022-12-15T00:12:23.679Z,99148.09
2022-12-15T00:14:14.421Z,99144.72
2022-12-15T00:16:06.245Z,99139.59
2022-12-15T00:17:56.726Z,99123.44
2022-12-15T00:19:47.535Z,99131.09
2022-12-15T00:21:38.307Z,99140.44
2022-12-15T00:23:31.362Z,99140.47
2022-12-15T00:25:21.931Z,99144.69
2022-12-15T00:27:12.824Z,99150.66
2022-12-15T00:29:03.508Z,99161.69
2022-12-15T00:30:58.892Z,99168.50
2022-12-15T00:32:52.735Z,99169.38
2022-12-15T00:34:43.047Z,99178.72
2022-12-15T00:36:33.729Z,99184.69
2022-12-15T00:38:32.543Z,99183.88
2022-12-15T00:40:05.705Z,99182.13
2022-12-15T00:41:37.745Z,99165.94
2022-12-15T00:43:15.984Z,99148.94
2022-12-15T00:44:48.003Z,99137.00
2022-12-15T00:46:38.599Z,99125.09
2022-12-15T00:48:10.566Z,99124.22
2022-12-15T00:50:01.265Z,99119.94
2022-12-15T00:51:51.842Z,99107.19
2022-12-15T00:53:43.437Z,99091.84
2022-12-15T00:55:33.970Z,99087.56
2022-12-15T00:57:24.653Z,99090.97
2022-12-15T00:59:15.194Z,99097.78
2022-12-15T01:01:05.660Z,99108.88
2022-12-15T01:02:56.452Z,99098.66
2022-12-15T01:04:47.514Z,99098.69
2022-12-15T01:06:38.681Z,99090.97
2022-12-15T01:08:29.458Z,99096.97
2022-12-15T01:10:20.223Z,99095.25
2022-12-15T01:12:11.818Z,99096.97
2022-12-15T01:14:02.529Z,99113.97
2022-12-15T01:15:55.563Z,99126.78
2022-12-15T01:17:45.943Z,99119.97
2022-12-15T01:19:36.628Z,99115.69
2022-12-15T01:21:09.657Z,99111.44
2022-12-15T01:22:41.864Z,99115.69
2022-12-15T01:24:13.877Z,99103.75
2022-12-15T01:25:45.835Z,99107.94
2022-12-15T01:27:24.760Z,99092.63
2022-12-15T01:28:56.790Z,99090.94
2022-12-15T01:30:31.530Z,99090.09
2022-12-15T01:32:03.588Z,99097.75
2022-12-15T01:33:35.583Z,99082.44
2022-12-15T01:35:08.575Z,99067.97
2022-12-15T01:36:40.583Z,99079.03
2022-12-15T01:38:12.588Z,99077.31
2022-12-15T01:40:05.153Z,99069.69
2022-12-15T01:41:37.086Z,99067.13
2022-12-15T01:43:30.824Z,99067.97
2022-12-15T01:45:24.896Z,99071.38
2022-12-15T01:46:57.150Z,99057.75
2022-12-15T01:48:34.196Z,99056.91
2022-12-15T01:50:13.452Z,99076.47
2022-12-15T01:51:49.267Z,99093.50
2022-12-15T01:53:21.252Z,99094.31
2022-12-15T01:54:56.894Z,99083.25
2022-12-15T01:56:33.997Z,99059.41
2022-12-15T01:58:09.783Z,99055.16
2022-12-15T01:59:46.721Z,99062.81
2022-12-15T02:01:18.822Z,99061.13
2022-12-15T02:02:51.663Z,99068.81
2022-12-15T02:04:24.100Z,99078.13
2022-12-15T02:05:57.511Z,99091.75
2022-12-15T02:07:29.499Z,99080.69
2022-12-15T02:09:01.849Z,99071.34
2022-12-15T02:11:08.767Z,99094.34
2022-12-15T02:13:08.480Z,99105.41
2022-12-15T02:14:47.903Z,99086.69
2022-12-15T02:16:42.713Z,99097.75
2022-12-15T02:18:17.796Z,99101.19
2022-12-15T02:20:01.678Z,99112.25
2022-12-15T02:21:41.101Z,99107.13
2022-12-15T02:23:16.194Z,99113.06
2022-12-15T02:25:02.915Z,99111.31
2022-12-15T02:26:53.643Z,99121.50
2022-12-15T02:28:53.610Z,99124.88
2022-12-15T02:31:41.122Z,99120.66
2022-12-15T02:33:24.953Z,99123.97
2022-12-15T02:35:04.225Z,99123.19
2022-12-15T02:36:39.303Z,99135.97
2022-12-15T02:38:11.435Z,99145.31
2022-12-15T02:39:44.061Z,99139.41
2022-12-15T02:41:38.580Z,99144.53
2022-12-15T02:43:10.401Z,99120.75
2022-12-15T02:44:55.206Z,99142.84
2022-12-15T02:48:52.083Z,99166.69
2022-12-15T02:50:51.663Z,99165.84
2022-12-15T02:52:26.290Z,99178.63
2022-12-15T02:54:29.037Z,99171.00
2022-12-15T02:56:11.254Z,99154.88
2022-12-15T02:57:58.992Z,99144.63
2022-12-15T02:59:47.814Z,99165.06
2022-12-15T03:01:31.523Z,99154.88
2022-12-15T03:03:03.797Z,99168.47
2022-12-15T03:04:37.520Z,99179.53
2022-12-15T03:06:09.681Z,99188.09
2022-12-15T03:07:43.089Z,99182.13
2022-12-15T03:09:15.051Z,99186.38
2022-12-15T03:10:47.661Z,99181.28
2022-12-15T03:12:19.657Z,99184.69
2022-12-15T03:13:52.139Z,99186.38
2022-12-15T03:15:24.110Z,99178.66
2022-12-15T03:16:56.417Z,99182.84
2022-12-15T03:18:28.560Z,99182.00
2022-12-15T03:20:00.623Z,99190.50
2022-12-15T03:21:32.596Z,99201.63
2022-12-15T03:23:04.560Z,99194.81
2022-12-15T03:24:36.528Z,99206.75
2022-12-15T03:26:12.384Z,99199.13
2022-12-15T03:27:46.309Z,99203.38
2022-12-15T03:29:18.523Z,99205.91
2022-12-15T03:30:50.887Z,99215.31
2022-12-15T03:32:22.981Z,99211.03
2022-12-15T03:33:55.828Z,99205.06
2022-12-15T03:35:27.786Z,99211.03
2022-12-15T03:36:59.748Z,99216.97
2022-12-15T03:38:31.663Z,99224.63
2022-12-15T03:40:03.795Z,99222.94
2022-12-15T03:41:35.762Z,99220.38
2022-12-15T03:43:07.728Z,99219.50
2022-12-15T03:44:39.717Z,99221.25
2022-12-15T03:47:51.197Z,99207.63
2022-12-15T03:49:23.154Z,99223.84
2022-12-15T03:50:55.574Z,99222.13
2022-12-15T03:52:27.567Z,99215.31
2022-12-15T03:53:59.560Z,99223.84
2022-12-15T03:55:31.716Z,99228.97
2022-12-15T03:57:03.801Z,99239.13
2022-12-15T03:58:35.822Z,99243.41
2022-12-15T04:00:08.682Z,99239.16
2022-12-15T04:01:46.417Z,99237.47
2022-12-15T04:03:18.630Z,99239.97
2022-12-15T04:04:50.640Z,99245.09
2022-12-15T04:06:22.996Z,99256.19
2022-12-15T04:07:56.295Z,99251.06
2022-12-15T04:09:28.231Z,99251.06
2022-12-15T04:11:00.202Z,99247.69
2022-12-15T04:12:32.171Z,99246.78
2022-12-15T04:14:07.278Z,99240.84
2022-12-15T04:17:12.516Z,99262.13
2022-12-15T04:18:44.707Z,99265.56
2022-12-15T04:20:16.711Z,99268.09
2022-12-15T04:21:49.744Z,99274.09
2022-12-15T04:23:22.577Z,99260.47
2022-12-15T04:25:12.880Z,99264.75
2022-12-15T04:27:03.429Z,99280.94
2022-12-15T04:28:54.038Z,99290.31
2022-12-15T04:30:44.842Z,99275.00
2022-12-15T04:32:35.746Z,99272.41
2022-12-15T04:34:31.113Z,99275.91
2022-12-15T04:36:21.947Z,99277.56
2022-12-15T04:38:12.420Z,99284.41
2022-12-15T04:40:07.020Z,99287.84
2022-12-15T04:41:57.392Z,99290.41
2022-12-15T04:43:48.227Z,99278.44
2022-12-15T04:45:41.119Z,99278.41
2022-12-15T04:47:31.757Z,99293.75
2022-12-15T04:49:22.568Z,99291.22
2022-12-15T04:51:13.184Z,99286.13
2022-12-15T04:53:03.897Z,99280.16
2022-12-15T04:54:54.554Z,99281.84
2022-12-15T04:56:45.093Z,99290.38
2022-12-15T04:58:35.620Z,99297.19
2022-12-15T05:00:27.614Z,99309.13
2022-12-15T05:02:18.296Z,99307.41
2022-12-15T05:04:08.891Z,99303.13
2022-12-15T05:05:59.317Z,99302.31
2022-12-15T05:07:50.055Z,99303.16
2022-12-15T05:09:40.764Z,99302.28
2022-12-15T05:11:31.395Z,99303.16
2022-12-15T05:13:25.747Z,99301.50
2022-12-15T05:15:16.527Z,99304.91
2022-12-15T05:17:07.587Z,99304.03
2022-12-15T05:18:58.235Z,99298.94
2022-12-15T05:20:50.173Z,99310.03
2022-12-15T05:22:40.870Z,99306.63
2022-12-15T05:24:31.606Z,99316.84
2022-12-15T05:26:22.313Z,99323.66
2022-12-15T05:28:13.058Z,99335.63
2022-12-15T05:30:03.704Z,99332.22
2022-12-15T05:31:55.407Z,99330.50
2022-12-15T05:33:27.628Z,99340.75
2022-12-15T05:34:59.765Z,99337.34
2022-12-15T05:36:31.825Z,99340.75
2022-12-15T05:38:05.802Z,99333.09
2022-12-15T05:39:37.844Z,99343.31
2022-12-15T05:41:09.928Z,99350.97
2022-12-15T05:42:42.040Z,99344.97
2022-12-15T05:44:14.425Z,99356.09
2022-12-15T05:45:46.471Z,99357.81
2022-12-15T05:47:18.513Z,99354.41
2022-12-15T05:48:50.808Z,99355.25
2022-12-15T05:50:23.727Z,99362.94
2022-12-15T05:51:57.516Z,99364.63
2022-12-15T05:53:29.844Z,99371.47
2022-12-15T05:55:02.090Z,99372.31
2022-12-15T05:56:34.122Z,99374.88
2022-12-15T05:58:06.190Z,99376.56
2022-12-15T05:59:38.236Z,99374.88
2022-12-15T06:01:13.841Z,99380.91
2022-12-15T06:02:45.912Z,99379.19
2022-12-15T06:04:18.078Z,99381.75
2022-12-15T06:05:56.161Z,99374.94
2022-12-15T06:07:28.567Z,99374.94
2022-12-15T06:09:00.634Z,99383.47
2022-12-15T06:10:32.657Z,99386.84
2022-12-15T06:12:04.847Z,99386.84
2022-12-15T06:13:36.948Z,99396.19
2022-12-15T06:15:09.421Z,99391.94
2022-12-15T06:16:50.042Z,99392.81
2022-12-15T06:18:24.077Z,99389.38
2022-12-15T06:19:56.165Z,99397.91
2022-12-15T06:21:35.758Z,99398.78
2022-12-15T06:23:07.875Z,99400.47
2022-12-15T06:24:39.899Z,99403.88
2022-12-15T06:26:34.632Z,99409.03
2022-12-15T06:28:06.680Z,99402.16
2022-12-15T06:29:38.687Z,99409.81
2022-12-15T06:31:12.196Z,99410.72
2022-12-15T06:32:44.052Z,99422.66
2022-12-15T06:35:48.242Z,99431.97
2022-12-15T06:37:20.268Z,99436.25
2022-12-15T06:38:52.743Z,99438.84
2022-12-15T06:40:24.755Z,99444.81
2022-12-15T06:41:56.748Z,99448.22
2022-12-15T06:43:29.595Z,99449.06
2022-12-15T06:45:01.920Z,99451.59
2022-12-15T06:46:35.366Z,99447.34
2022-12-15T06:48:07.523Z,99442.25
2022-12-15T06:49:39.594Z,99454.19
2022-12-15T06:51:16.812Z,99444.81
2022-12-15T06:52:49.500Z,99445.66
2022-12-15T06:54:21.688Z,99454.22
2022-12-15T06:55:53.661Z,99455.06
2022-12-15T06:57:25.627Z,99452.50
2022-12-15T06:58:59.103Z,99461.06
2022-12-15T07:00:34.697Z,99464.44
2022-12-15T07:02:10.450Z,99459.34
2022-12-15T07:03:44.843Z,99465.31
2022-12-15T07:05:17.072Z,99466.19
2022-12-15T07:06:49.450Z,99471.31
2022-12-15T07:08:24.443Z,99485.78
2022-12-15T07:10:00.734Z,99484.13
2022-12-15T07:11:33.271Z,99479.00
2022-12-15T07:13:05.182Z,99490.06
2022-12-15T07:14:37.101Z,99491.75
2022-12-15T07:16:10.380Z,99496.06
2022-12-15T07:17:42.566Z,99497.72
2022-12-15T07:19:14.780Z,99489.25
2022-12-15T07:20:46.854Z,99483.25
2022-12-15T07:22:22.769Z,99489.25
2022-12-15T07:23:56.734Z,99489.25
2022-12-15T07:25:29.926Z,99495.22
2022-12-15T07:27:01.917Z,99496.09
2022-12-15T07:28:34.916Z,99496.13
2022-12-15T07:30:07.961Z,99497.81
2022-12-15T07:31:40.622Z,99504.66
2022-12-15T07:33:12.764Z,99503.78
2022-12-15T07:34:44.830Z,99505.50
2022-12-15T07:36:16.945Z,99508.94
2022-12-15T07:37:48.970Z,99507.25
2022-12-15T07:39:21.515Z,99515.78
2022-12-15T07:40:53.791Z,99517.50
2022-12-15T07:42:25.790Z,99514.94
2022-12-15T07:43:58.692Z,99513.25
2022-12-15T07:45:30.793Z,99523.50
2022-12-15T07:47:02.811Z,99516.66
2022-12-15T07:48:35.013Z,99524.38
2022-12-15T07:50:08.230Z,99525.22
2022-12-15T07:51:41.563Z,99514.97
2022-12-15T07:53:13.608Z,99525.22
2022-12-15T07:54:45.785Z,99523.53
2022-12-15T07:56:21.104Z,99523.50
2022-12-15T07:57:53.109Z,99520.94
2022-12-15T07:59:25.176Z,99532.88
2022-12-15T08:01:01.230Z,99534.66
2022-12-15T08:02:33.397Z,99536.34
2022-12-15T08:04:05.754Z,99546.56
2022-12-15T08:05:38.076Z,99536.38
2022-12-15T08:07:10.690Z,99532.97
2022-12-15T08:08:44.594Z,99533.88
2022-12-15T08:10:16.978Z,99538.16
2022-12-15T08:11:49.019Z,99527.06
2022-12-15T08:13:52.448Z,99533.03
2022-12-15T08:15:13.147Z,99536.47
2022-12-15T08:16:45.709Z,99542.47
2022-12-15T08:18:17.853Z,99550.13
2022-12-15T08:19:49.833Z,99553.53
2022-12-15T08:21:21.836Z,99559.50
2022-12-15T08:22:53.883Z,99551.00
2022-12-15T08:24:25.942Z,99558.69
2022-12-15T08:26:12.204Z,99562.97
2022-12-15T08:27:47.362Z,99566.34
2022-12-15T08:31:19.875Z,99566.25
2022-12-15T08:32:57.819Z,99566.22
2022-12-15T08:34:29.835Z,99565.38
2022-12-15T08:36:04.874Z,99572.25
2022-12-15T08:37:36.997Z,99562.00
2022-12-15T08:39:09.050Z,99571.38
2022-12-15T08:40:41.006Z,99570.56
2022-12-15T08:42:13.065Z,99568.03
2022-12-15T08:43:48.552Z,99568.06
2022-12-15T08:45:21.148Z,99560.38
2022-12-15T08:46:53.191Z,99560.38
2022-12-15T08:48:25.236Z,99563.81
2022-12-15T08:49:57.253Z,99565.50
2022-12-15T08:51:31.327Z,99571.53
2022-12-15T08:53:29.527Z,99575.78
2022-12-15T08:54:55.767Z,99581.75
2022-12-15T08:56:28.224Z,99571.53
2022-12-15T08:58:00.313Z,99569.88
2022-12-15T08:59:32.399Z,99565.63
2022-12-15T09:01:06.603Z,99572.47
2022-12-15T09:04:12.630Z,99553.59
2022-12-15T09:05:44.729Z,99580.13
2022-12-15T09:07:16.685Z,99581.84
2022-12-15T09:08:50.216Z,99586.09
2022-12-15T09:10:23.877Z,99575.06
2022-12-15T09:11:55.856Z,99582.72
2022-12-15T09:13:29.225Z,99586.19
2022-12-15T09:15:01.612Z,99593.03
2022-12-15T09:16:33.773Z,99587.94
2022-12-15T09:18:06.026Z,99580.28
2022-12-15T09:19:38.162Z,99593.09
2022-12-15T09:21:11.552Z,99590.56
2022-12-15T09:22:43.563Z,99576.91
2022-12-15T09:24:23.192Z,99581.22
2022-12-15T09:26:02.329Z,99583.78
2022-12-15T09:27:35.547Z,99582.94
2022-12-15T09:29:07.486Z,99571.84
2022-12-15T09:30:39.582Z,99580.41
2022-12-15T09:32:14.308Z,99577.88
2022-12-15T09:33:46.682Z,99575.31
2022-12-15T09:35:18.739Z,99577.88
2022-12-15T09:36:50.801Z,99573.63
2022-12-15T09:40:01.830Z,99588.16
2022-12-15T09:41:35.497Z,99580.50
2022-12-15T09:43:33.359Z,99582.22
2022-12-15T09:45:14.421Z,99584.78
2022-12-15T09:47:12.381Z,99589.94
2022-12-15T09:48:45.899Z,99588.22
2022-12-15T09:50:24.007Z,99597.66
2022-12-15T09:52:08.990Z,99594.22
2022-12-15T09:53:59.164Z,99586.53
2022-12-15T09:55:35.694Z,99582.28
2022-12-15T09:57:26.871Z,99583.09
2022-12-15T09:59:10.270Z,99577.97
2022-12-15T10:00:59.718Z,99583.97
2022-12-15T10:02:38.331Z,99584.00
2022-12-15T10:04:16.043Z,99578.84
2022-12-15T10:06:18.226Z,99580.59
2022-12-15T10:07:52.067Z,99576.28
2022-12-15T10:09:28.733Z,99572.03
2022-12-15T10:11:05.926Z,99576.28
2022-12-15T10:12:45.504Z,99583.13
2022-12-15T10:14:28.877Z,99589.13
2022-12-15T10:16:08.090Z,99587.44
2022-12-15T10:17:50.312Z,99584.03
2022-12-15T10:21:38.719Z,99592.59
2022-12-15T10:23:17.501Z,99584.06
2022-12-15T10:26:43.161Z,99564.38
2022-12-15T10:28:18.048Z,99544.72
2022-12-15T10:30:09.496Z,99546.44
2022-12-15T10:31:58.384Z,99563.56
2022-12-15T10:33:38.751Z,99557.56
2022-12-15T10:35:16.968Z,99571.22
2022-12-15T10:36:51.732Z,99565.25
2022-12-15T10:38:27.538Z,99560.97
2022-12-15T10:39:59.615Z,99557.56
2022-12-15T10:41:34.129Z,99559.28
2022-12-15T10:43:14.158Z,99560.13
2022-12-15T10:44:50.308Z,99555.84
2022-12-15T10:46:28.017Z,99554.97
2022-12-15T10:48:02.745Z,99548.16
2022-12-15T10:49:34.709Z,99549.00
2022-12-15T10:51:32.016Z,99540.44
2022-12-15T10:53:09.685Z,99547.31
2022-12-15T10:54:45.763Z,99543.88
2022-12-15T10:56:28.752Z,99536.19
2022-12-15T10:58:05.596Z,99527.63
2022-12-15T10:59:39.011Z,99525.94
2022-12-15T11:01:18.306Z,99528.50
2022-12-15T11:02:50.641Z,99525.91
2022-12-15T11:04:33.222Z,99531.91
2022-12-15T11:06:14.928Z,99530.19
2022-12-15T11:07:55.201Z,99531.91
2022-12-15T11:09:36.607Z,99528.50
2022-12-15T11:11:57.731Z,99515.66
2022-12-15T11:13:33.187Z,99525.91
2022-12-15T11:15:25.623Z,99525.06
2022-12-15T11:16:59.278Z,99525.06
2022-12-15T11:18:33.453Z,99514.78
2022-12-15T11:20:11.531Z,99514.78
2022-12-15T11:21:46.702Z,99507.09
2022-12-15T11:23:46.610Z,99517.38
2022-12-15T11:25:42.720Z,99525.91
2022-12-15T11:27:27.684Z,99519.06
2022-12-15T11:29:03.099Z,99521.66
2022-12-15T11:30:39.505Z,99525.91
2022-12-15T11:32:13.185Z,99523.34
2022-12-15T11:33:45.262Z,99513.06
2022-12-15T11:35:44.895Z,99529.31
2022-12-15T11:37:41.897Z,99530.19
2022-12-15T11:39:23.275Z,99527.63
2022-12-15T11:40:57.036Z,99527.59
2022-12-15T11:42:48.826Z,99519.91
2022-12-15T11:44:45.293Z,99517.34
2022-12-15T11:46:24.179Z,99516.50
2022-12-15T11:48:08.406Z,99523.31
2022-12-15T11:49:52.431Z,99525.88
2022-12-15T11:51:29.806Z,99535.31
2022-12-15T11:53:12.994Z,99531.03
2022-12-15T11:54:55.817Z,99527.59
2022-12-15T11:56:34.825Z,99523.34
2022-12-15T11:58:12.740Z,99521.59
2022-12-15T12:00:19.634Z,99515.63
2022-12-15T12:02:19.723Z,99527.59
2022-12-15T12:04:21.299Z,99520.75
2022-12-15T12:06:08.737Z,99520.75
2022-12-15T12:07:53.309Z,99518.19
2022-12-15T12:09:35.545Z,99519.06
2022-12-15T12:11:23.716Z,99529.31
2022-12-15T12:13:04.759Z,99525.91
2022-12-15T12:14:50.411Z,99522.50
2022-12-15T12:16:44.559Z,99521.63
2022-12-15T12:18:26.721Z,99523.38
2022-12-15T12:20:03.861Z,99520.81
2022-12-15T12:21:51.260Z,99525.91
2022-12-15T12:23:29.490Z,99531.06
2022-12-15T12:25:06.517Z,99529.34
2022-12-15T12:26:42.470Z,99529.31
2022-12-15T12:28:21.752Z,99534.47
2022-12-15T12:30:18.457Z,99541.31
2022-12-15T12:32:14.530Z,99544.72
2022-12-15T12:33:49.921Z,99545.59
2022-12-15T12:35:39.830Z,99537.91
2022-12-15T12:37:42.219Z,99543.88
2022-12-15T12:39:20.718Z,99551.59
2022-12-15T12:40:52.990Z,99548.19
2022-12-15T12:42:34.121Z,99548.16
2022-12-15T12:44:22.742Z,99546.47
2022-12-15T12:46:01.363Z,99558.41
2022-12-15T12:47:36.856Z,99555.88
2022-12-15T12:49:21.353Z,99556.72
2022-12-15T12:51:14.509Z,99557.56
2022-12-15T12:52:55.028Z,99556.75
2022-12-15T12:56:30.815Z,99571.25
2022-12-15T12:58:03.026Z,99574.69
2022-12-15T12:59:38.573Z,99572.13
2022-12-15T13:01:31.331Z,99569.56
2022-12-15T13:03:23.728Z,99576.38
2022-12-15T13:04:58.271Z,99574.69
2022-12-15T13:06:36.359Z,99573.81
2022-12-15T13:08:09.087Z,99568.69
2022-12-15T13:12:15.097Z,99580.66
2022-12-15T13:13:53.933Z,99574.66
2022-12-15T13:15:29.208Z,99582.34
2022-12-15T13:19:07.969Z,99579.78
2022-12-15T13:20:40.676Z,99577.22
2022-12-15T13:22:32.616Z,99575.50
2022-12-15T13:24:04.772Z,99575.50
2022-12-15T13:25:38.316Z,99568.66
2022-12-15T13:27:10.073Z,99585.78
2022-12-15T13:28:45.554Z,99577.25
2022-12-15T13:30:18.362Z,99575.53
2022-12-15T13:31:51.264Z,99575.53
2022-12-15T13:33:24.120Z,99578.09
2022-12-15T13:34:56.579Z,99575.53
2022-12-15T13:36:37.717Z,99579.81
2022-12-15T13:38:18.102Z,99574.69
2022-12-15T13:41:25.386Z,99585.81
2022-12-15T13:42:59.340Z,99580.66
2022-12-15T13:44:36.476Z,99587.50
2022-12-15T13:46:16.832Z,99581.50
2022-12-15T13:47:52.572Z,99581.50
2022-12-15T13:49:53.266Z,99590.09
2022-12-15T13:51:38.723Z,99579.78
2022-12-15T13:53:19.724Z,99592.63
2022-12-15T13:54:56.929Z,99587.50
2022-12-15T13:56:40.898Z,99584.09
2022-12-15T13:58:17.681Z,99584.94
2022-12-15T13:59:58.069Z,99584.94
2022-12-15T14:03:24.663Z,99593.47
2022-12-15T14:05:26.069Z,99586.66
2022-12-15T14:07:01.498Z,99585.81
2022-12-15T14:08:33.564Z,99585.78
2022-12-15T14:10:08.819Z,99584.06
2022-12-15T14:11:58.080Z,99588.38
2022-12-15T14:13:32.197Z,99593.47
2022-12-15T14:15:04.913Z,99596.06
2022-12-15T14:16:36.952Z,99598.63
2022-12-15T14:18:29.085Z,99596.06
2022-12-15T14:20:12.438Z,99595.22
2022-12-15T14:21:58.890Z,99603.78
2022-12-15T14:23:41.538Z,99609.75
2022-12-15T14:25:22.881Z,99605.47
2022-12-15T14:26:55.050Z,99615.72
2022-12-15T14:28:33.960Z,99602.91
2022-12-15T14:30:13.995Z,99602.06
2022-12-15T14:31:51.101Z,99602.91
2022-12-15T14:33:28.097Z,99602.91
2022-12-15T14:35:01.968Z,99609.75
2022-12-15T14:36:34.638Z,99602.91
2022-12-15T14:38:08.945Z,99606.31
2022-12-15T14:39:50.131Z,99616.59
2022-12-15T14:41:31.678Z,99623.41
2022-12-15T14:43:05.192Z,99625.16
2022-12-15T14:44:48.078Z,99620.00
2022-12-15T14:46:26.216Z,99623.44
2022-12-15T14:48:39.383Z,99625.13
2022-12-15T14:50:01.486Z,99620.03
2022-12-15T14:51:42.873Z,99619.16
2022-12-15T14:53:17.880Z,99623.44
2022-12-15T14:55:01.239Z,99625.13
2022-12-15T14:56:33.282Z,99630.25
2022-12-15T14:58:41.134Z,99630.28
2022-12-15T15:00:37.097Z,99625.16
2022-12-15T15:02:20.251Z,99632.88
2022-12-15T15:03:04.321Z,99590.91
2022-12-15T15:03:11.858Z,99577.22
2022-12-15T15:04:00.030Z,99628.56
2022-12-15T15:05:33.427Z,99635.41
2022-12-15T15:07:08.347Z,99639.69
2022-12-15T15:10:24.406Z,99643.09
2022-12-15T15:12:05.249Z,99642.25
2022-12-15T15:13:40.310Z,99649.09
2022-12-15T15:15:19.536Z,99644.81
2022-12-15T15:17:07.235Z,99649.09
2022-12-15T15:18:39.358Z,99649.09
2022-12-15T15:20:27.179Z,99653.38
2022-12-15T15:22:02.297Z,99651.66
2022-12-15T15:23:34.615Z,99663.63
2022-12-15T15:25:25.656Z,99662.78
2022-12-15T15:27:24.954Z,99661.94
2022-12-15T15:28:57.387Z,99653.34
2022-12-15T15:30:30.697Z,99666.22
2022-12-15T15:32:17.522Z,99663.63
2022-12-15T15:33:49.595Z,99669.59
2022-12-15T15:35:23.070Z,99676.44
2022-12-15T15:36:55.256Z,99673.03
2022-12-15T15:38:40.143Z,99659.34
2022-12-15T15:40:14.781Z,99667.91
2022-12-15T15:41:46.728Z,99667.06
2022-12-15T15:43:19.774Z,99658.50
2022-12-15T15:44:51.887Z,99662.75
2022-12-15T15:46:26.460Z,99655.91
2022-12-15T15:48:01.553Z,99664.47
2022-12-15T15:49:37.910Z,99657.63
2022-12-15T15:51:11.790Z,99651.66
2022-12-15T15:52:44.316Z,99649.09
2022-12-15T15:54:22.998Z,99651.66
2022-12-15T15:55:56.271Z,99657.66
2022-12-15T15:57:28.349Z,99647.38
2022-12-15T15:59:10.014Z,99643.97
2022-12-15T16:00:42.205Z,99655.94
2022-12-15T16:02:14.893Z,99661.06
2022-12-15T16:03:47.146Z,99663.63
2022-12-15T16:05:21.315Z,99659.34
2022-12-15T16:06:53.847Z,99674.75
2022-12-15T16:08:29.106Z,99676.44
2022-12-15T16:10:01.594Z,99679.03
2022-12-15T16:11:34.843Z,99679.88
2022-12-15T16:13:10.182Z,99673.03
2022-12-15T16:14:42.188Z,99672.19
2022-12-15T16:16:19.389Z,99676.47
2022-12-15T16:17:52.383Z,99676.44
2022-12-15T16:19:27.997Z,99676.47
2022-12-15T16:21:00.036Z,99691.88
2022-12-15T16:22:33.935Z,99683.28
2022-12-15T16:24:11.719Z,99688.44
2022-12-15T16:25:50.607Z,99679.03
2022-12-15T16:27:23.269Z,99684.16
2022-12-15T16:28:55.849Z,99678.19
2022-12-15T16:30:28.917Z,99684.13
2022-12-15T16:32:01.027Z,99680.72
2022-12-15T16:33:33.105Z,99686.69
2022-12-15T16:35:05.505Z,99690.13
2022-12-15T16:36:37.643Z,99689.28
2022-12-15T16:38:38.556Z,99693.56
2022-12-15T16:40:16.088Z,99695.25
2022-12-15T16:41:48.143Z,99698.66
2022-12-15T16:43:22.219Z,99688.41
2022-12-15T16:44:57.009Z,99690.09
2022-12-15T16:46:29.079Z,99695.22
2022-12-15T16:48:01.376Z,99699.50
2022-12-15T16:49:39.767Z,99701.22
2022-12-15T16:51:31.811Z,99702.09
2022-12-15T16:53:04.807Z,99707.19
2022-12-15T16:54:36.804Z,99711.47
2022-12-15T16:56:13.385Z,99710.63
2022-12-15T16:57:45.871Z,99708.06
2022-12-15T16:59:36.430Z,99711.47
2022-12-15T17:01:10.882Z,99709.78
2022-12-15T17:02:44.383Z,99714.03
2022-12-15T17:04:16.944Z,99715.78
2022-12-15T17:05:50.888Z,99715.75
2022-12-15T17:07:24.511Z,99723.41
2022-12-15T17:08:56.459Z,99727.69
2022-12-15T17:10:30.322Z,99719.16
2022-12-15T17:12:02.571Z,99719.13
2022-12-15T17:13:45.339Z,99729.38
2022-12-15T17:15:23.670Z,99731.06
2022-12-15T17:16:56.028Z,99731.09
2022-12-15T17:18:28.514Z,99727.63
2022-12-15T17:21:54.074Z,99727.66
2022-12-15T17:23:26.247Z,99736.16
2022-12-15T17:24:58.244Z,99733.59
2022-12-15T17:26:32.229Z,99735.31
2022-12-15T17:28:06.866Z,99737.00
2022-12-15T17:29:39.644Z,99736.16
2022-12-15T17:31:22.824Z,99742.13
2022-12-15T17:32:54.939Z,99751.53
2022-12-15T17:34:31.624Z,99748.13
2022-12-15T17:36:07.281Z,99748.97
2022-12-15T17:37:40.079Z,99748.13
2022-12-15T17:39:12.274Z,99742.97
2022-12-15T17:40:45.323Z,99742.97
2022-12-15T17:42:21.304Z,99748.13
2022-12-15T17:44:09.743Z,99738.69
2022-12-15T17:47:19.974Z,99745.56
2022-12-15T17:48:52.020Z,99750.66
2022-12-15T17:50:25.382Z,99748.94
2022-12-15T17:51:58.158Z,99744.66
2022-12-15T17:53:31.007Z,99752.34
2022-12-15T17:55:08.407Z,99758.34
2022-12-15T17:56:42.472Z,99756.63
2022-12-15T17:58:25.932Z,99754.09
2022-12-15T17:59:59.096Z,99759.19
2022-12-15T18:01:31.311Z,99754.03
2022-12-15T18:03:03.682Z,99754.88
2022-12-15T18:04:36.153Z,99754.00
2022-12-15T18:06:14.989Z,99751.47
2022-12-15T18:07:50.819Z,99747.19
2022-12-15T18:09:23.222Z,99747.16
2022-12-15T18:10:57.600Z,99739.47
2022-12-15T18:12:30.014Z,99744.59
2022-12-15T18:14:02.076Z,99742.03
2022-12-15T18:15:34.109Z,99736.06
2022-12-15T18:17:06.124Z,99739.47
2022-12-15T18:18:38.406Z,99737.78
2022-12-15T18:20:10.887Z,99735.19
2022-12-15T18:21:42.999Z,99736.03
2022-12-15T18:23:20.710Z,99742.88
2022-12-15T18:24:54.081Z,99748.88
2022-12-15T18:26:26.057Z,99752.28
2022-12-15T18:27:58.943Z,99742.03
2022-12-15T18:29:30.979Z,99743.72
2022-12-15T18:31:26.779Z,99756.53
2022-12-15T18:32:59.534Z,99757.34
2022-12-15T18:34:31.600Z,99759.00
2022-12-15T18:36:03.950Z,99763.28
2022-12-15T18:37:36.305Z,99759.88
2022-12-15T18:39:19.904Z,99762.47
2022-12-15T18:40:53.997Z,99756.47
2022-12-15T18:42:26.080Z,99763.28
2022-12-15T18:43:59.210Z,99766.66
2022-12-15T18:45:31.326Z,99766.63
2022-12-15T18:47:03.511Z,99764.91
2022-12-15T18:48:38.116Z,99761.50
2022-12-15T18:50:24.652Z,99763.25
2022-12-15T18:51:56.643Z,99757.25
2022-12-15T18:53:35.166Z,99751.25
2022-12-15T18:55:16.942Z,99744.44
2022-12-15T18:56:49.131Z,99752.09
2022-12-15T18:58:24.881Z,99752.09
2022-12-15T19:00:16.035Z,99750.41
2022-12-15T19:01:49.417Z,99752.97
2022-12-15T19:03:21.888Z,99761.50
2022-12-15T19:04:53.965Z,99754.66
2022-12-15T19:06:35.231Z,99755.50
2022-12-15T19:08:13.564Z,99751.22
2022-12-15T19:09:45.633Z,99758.00
2022-12-15T19:11:25.579Z,99765.72
2022-12-15T19:12:58.828Z,99764.78
2022-12-15T19:14:43.369Z,99767.34
2022-12-15T19:16:20.223Z,99765.66
2022-12-15T19:18:10.636Z,99748.50
2022-12-15T19:21:49.333Z,99744.28
2022-12-15T19:23:21.838Z,99751.97
2022-12-15T19:24:56.794Z,99752.81
2022-12-15T19:26:28.973Z,99751.09
2022-12-15T19:28:01.299Z,99749.38
2022-12-15T19:29:33.265Z,99747.69
2022-12-15T19:31:05.456Z,99748.56
2022-12-15T19:32:37.553Z,99749.38
2022-12-15T19:34:10.344Z,99757.94
2022-12-15T19:35:44.604Z,99752.84
2022-12-15T19:37:24.823Z,99751.97
2022-12-15T19:38:56.908Z,99754.53
2022-12-15T19:40:30.993Z,99743.47
2022-12-15T19:42:06.552Z,99751.13
2022-12-15T19:43:42.752Z,99750.28
2022-12-15T19:45:20.566Z,99753.72
2022-12-15T19:46:52.815Z,99753.66
2022-12-15T19:48:24.814Z,99748.50